Time;durP1;ratioP1;P1;durP2;ratioP2;P2;SDS_P1;SDS_P2;PMS_P1;PMS_P2;Temp;Humidity;BMP_temperature;BMP_pressure;BME280_temperature;BME280_humidity;BME280_pressure;Samples;Min_cycle;Max_cycle;Signal;HPM_P1;HPM_P2
2023/12/06 00:00:58;;;;;;;40.63;16.52;;;;;;;-0.73;100.00;98435.81;4469085;32;20100;-71
2023/12/06 00:03:26;;;;;;;42.15;15.40;;;;;;;-0.69;100.00;98434.78;4468932;32;20092;-71
2023/12/06 00:05:55;;;;;;;43.80;17.67;;;;;;;-0.73;100.00;98434.09;4468884;32;20136;-71
2023/12/06 00:08:23;;;;;;;42.65;18.37;;;;;;;-0.67;100.00;98429.56;4468941;32;20097;-71
2023/12/06 00:10:51;;;;;;;47.40;18.08;;;;;;;-0.70;100.00;98427.97;4468712;32;20462;-71
2023/12/06 00:13:19;;;;;;;47.05;17.83;;;;;;;-0.68;100.00;98428.72;4468733;32;20111;-71
2023/12/06 00:15:46;;;;;;;43.80;16.85;;;;;;;-0.69;100.00;98427.06;4468744;32;20121;-71
2023/12/06 00:18:15;;;;;;;40.15;16.85;;;;;;;-0.63;100.00;98420.78;4468597;32;20096;-71
2023/12/06 00:20:43;;;;;;;47.55;18.40;;;;;;;-0.63;100.00;98429.31;4468722;32;20093;-71
2023/12/06 00:23:10;;;;;;;41.08;18.15;;;;;;;-0.60;100.00;98424.03;4468540;32;20146;-71
2023/12/06 00:25:38;;;;;;;45.50;17.00;;;;;;;-0.57;100.00;98423.06;4468471;32;20548;-71
2023/12/06 00:28:09;;;;;;;41.03;16.12;;;;;;;-0.64;100.00;98425.09;4468391;32;20119;-71
2023/12/06 00:30:37;;;;;;;50.83;18.15;;;;;;;-0.62;100.00;98415.56;4468943;32;20481;-71
2023/12/06 00:33:06;;;;;;;37.08;14.40;;;;;;;-0.62;100.00;98413.00;4468256;32;20096;-71
2023/12/06 00:35:34;;;;;;;44.53;18.62;;;;;;;-0.56;100.00;98411.84;4468617;32;20176;-71
2023/12/06 00:38:01;;;;;;;35.22;14.52;;;;;;;-0.64;100.00;98412.22;4468437;32;20148;-71
2023/12/06 00:40:29;;;;;;;38.72;16.98;;;;;;;-0.63;100.00;98406.19;4468531;32;20093;-71
2023/12/06 00:42:58;;;;;;;40.33;17.75;;;;;;;-0.64;100.00;98401.09;4468287;32;20092;-71
2023/12/06 00:45:25;;;;;;;42.72;16.25;;;;;;;-0.59;100.00;98399.97;4468388;32;20132;-71
2023/12/06 00:47:54;;;;;;;30.70;13.90;;;;;;;-0.62;100.00;98400.13;4468485;32;20139;-71
2023/12/06 00:50:26;;;;;;;32.63;14.18;;;;;;;-0.66;100.00;98405.50;4468265;32;20085;-71
2023/12/06 00:52:55;;;;;;;37.47;16.60;;;;;;;-0.64;100.00;98393.37;4468376;32;20077;-71
2023/12/06 00:55:22;;;;;;;39.50;16.17;;;;;;;-0.66;100.00;98400.37;4468156;32;20492;-71
2023/12/06 00:57:50;;;;;;;38.22;14.65;;;;;;;-0.68;100.00;98390.16;4468139;32;20093;-71
2023/12/06 01:00:18;;;;;;;36.03;15.50;;;;;;;-0.64;100.00;98401.94;4468043;32;20092;-71
2023/12/06 01:02:46;;;;;;;41.08;15.48;;;;;;;-0.57;100.00;98395.59;4468297;32;20085;-71
2023/12/06 01:05:14;;;;;;;38.13;15.38;;;;;;;-0.57;100.00;98392.19;4468235;32;20101;-72
2023/12/06 01:07:42;;;;;;;37.47;15.73;;;;;;;-0.58;100.00;98401.63;4468011;32;20467;-72
2023/12/06 01:10:10;;;;;;;37.88;14.65;;;;;;;-0.50;100.00;98392.69;4469298;32;20093;-72
2023/12/06 01:12:38;;;;;;;38.88;15.45;;;;;;;-0.54;100.00;98398.00;4470067;32;20587;-72
2023/12/06 01:15:07;;;;;;;34.67;14.02;;;;;;;-0.50;100.00;98392.69;4470059;32;20089;-72
2023/12/06 01:17:35;;;;;;;36.45;14.13;;;;;;;-0.45;100.00;98390.75;4470008;32;20109;-72
2023/12/06 01:20:05;;;;;;;37.00;16.85;;;;;;;-0.45;100.00;98393.31;4470326;32;20092;-72
2023/12/06 01:22:34;;;;;;;34.22;16.73;;;;;;;-0.45;100.00;98390.75;4469947;32;20442;-72
2023/12/06 01:25:02;;;;;;;37.95;14.82;;;;;;;-0.51;100.00;98391.88;4469955;32;20130;-72
2023/12/06 01:27:30;;;;;;;44.72;17.42;;;;;;;-0.42;100.00;98383.69;4469895;32;20096;-72
2023/12/06 01:29:58;;;;;;;41.70;16.02;;;;;;;-0.47;100.00;98382.25;4469848;32;20100;-72
2023/12/06 01:32:37;;;;;;;42.58;16.20;;;;;;;-0.47;100.00;98382.25;4470059;32;20456;-72
2023/12/06 01:35:07;;;;;;;43.72;16.02;;;;;;;-0.55;100.00;98375.75;4470065;32;20101;-72
2023/12/06 01:37:34;;;;;;;38.38;14.75;;;;;;;-0.54;100.00;98377.41;4470072;32;20147;-72
2023/12/06 01:40:04;;;;;;;39.97;15.98;;;;;;;-0.51;100.00;98371.28;4469823;32;20104;-72
2023/12/06 01:42:36;;;;;;;39.27;16.43;;;;;;;-0.50;100.00;98370.37;4469939;32;20088;-72
2023/12/06 01:45:03;;;;;;;36.50;15.93;;;;;;;-0.52;100.00;98368.78;4469853;32;20708;-72
2023/12/06 01:47:32;;;;;;;37.35;15.63;;;;;;;-0.46;100.00;98365.91;4469925;32;20120;-72
2023/12/06 01:50:01;;;;;;;37.55;15.00;;;;;;;-0.49;100.00;98364.31;4468576;32;20096;-72
2023/12/06 01:52:32;;;;;;;37.97;16.62;;;;;;;-0.45;100.00;98368.41;4469774;32;20077;-72
2023/12/06 01:54:59;;;;;;;39.33;15.52;;;;;;;-0.51;100.00;98365.31;4469848;32;20096;-72
2023/12/06 01:57:28;;;;;;;45.38;15.50;;;;;;;-0.55;100.00;98360.31;4469666;32;20092;-72
2023/12/06 01:59:56;;;;;;;39.60;16.75;;;;;;;-0.54;100.00;98364.56;4470067;32;20089;-72
2023/12/06 02:02:25;;;;;;;33.67;14.27;;;;;;;-0.48;100.00;98360.84;4469857;32;20149;-72
2023/12/06 02:04:53;;;;;;;30.15;13.75;;;;;;;-0.47;100.00;98354.78;4469835;32;20482;-72
2023/12/06 02:07:23;;;;;;;36.30;15.63;;;;;;;-0.41;100.00;98351.06;4469832;32;20371;-72
2023/12/06 02:09:54;;;;;;;38.08;14.77;;;;;;;-0.48;100.00;98353.13;4468415;32;20123;-72
2023/12/06 02:12:22;;;;;;;38.95;15.85;;;;;;;-0.52;100.00;98359.31;4468280;32;20406;-72
2023/12/06 02:14:50;;;;;;;34.33;14.25;;;;;;;-0.48;100.00;98357.44;4469593;32;20525;-72
2023/12/06 02:17:18;;;;;;;35.50;15.15;;;;;;;-0.46;100.00;98358.19;4469993;32;20157;-72
2023/12/06 02:19:47;;;;;;;35.58;15.25;;;;;;;-0.34;100.00;98362.72;4469449;32;20092;-72
2023/12/06 02:22:15;;;;;;;32.80;14.32;;;;;;;-0.28;100.00;98357.25;4469632;32;20092;-72
2023/12/06 02:24:44;;;;;;;41.28;15.60;;;;;;;-0.23;100.00;98357.00;4468563;32;20131;-72
2023/12/06 02:27:12;;;;;;;41.25;16.15;;;;;;;-0.11;100.00;98358.94;4468076;32;20142;-72
2023/12/06 02:29:41;;;;;;;30.60;14.13;;;;;;;-0.04;100.00;98359.47;4469643;32;20115;-72
2023/12/06 02:32:08;;;;;;;35.78;16.08;;;;;;;-0.10;100.00;98354.63;4469923;32;20104;-72
2023/12/06 02:34:37;;;;;;;33.20;14.68;;;;;;;-0.18;100.00;98342.16;4469473;32;20089;-72
2023/12/06 02:37:12;;;;;;;31.35;13.57;;;;;;;-0.03;100.00;98346.50;4468462;32;20123;-72
2023/12/06 02:39:45;;;;;;;29.35;13.73;;;;;;;-0.05;100.00;98344.91;4468199;32;20084;-72
2023/12/06 02:42:12;;;;;;;30.55;13.43;;;;;;;-0.15;100.00;98341.16;4469642;32;20081;-72
2023/12/06 02:44:40;;;;;;;35.20;15.15;;;;;;;-0.21;100.00;98338.00;4469430;32;20158;-72
2023/12/06 02:47:10;;;;;;;33.70;14.15;;;;;;;-0.21;100.00;98334.59;4469589;32;20153;-72
2023/12/06 02:49:38;;;;;;;34.65;13.05;;;;;;;-0.24;100.00;98329.63;4469500;32;20096;-72
2023/12/06 02:52:07;;;;;;;29.42;13.52;;;;;;;-0.11;100.00;98340.09;4469375;32;20108;-72
2023/12/06 02:54:35;;;;;;;34.80;13.77;;;;;;;-0.15;100.00;98334.28;4469379;32;20104;-72
2023/12/06 02:57:03;;;;;;;26.55;12.57;;;;;;;-0.02;100.00;98337.84;4469534;32;20115;-72
2023/12/06 02:59:31;;;;;;;29.02;12.57;;;;;;;-0.01;100.00;98338.69;4469383;32;20117;-72
2023/12/06 03:02:00;;;;;;;28.17;12.63;;;;;;;-0.09;100.00;98327.97;4469356;32;20456;-72
2023/12/06 03:04:27;;;;;;;31.37;12.05;;;;;;;-0.25;100.00;98326.19;4469321;32;20112;-73
2023/12/06 03:06:55;;;;;;;30.75;12.10;;;;;;;-0.26;100.00;98326.28;4469342;32;20213;-73
2023/12/06 03:09:23;;;;;;;25.33;11.30;;;;;;;-0.20;100.00;98329.38;4469432;32;20165;-73
2023/12/06 03:11:51;;;;;;;31.33;13.60;;;;;;;-0.17;100.00;98328.38;4469208;32;20085;-73
2023/12/06 03:14:19;;;;;;;32.10;12.40;;;;;;;-0.22;100.00;98330.34;4469160;32;20134;-73
2023/12/06 03:16:46;;;;;;;30.80;13.27;;;;;;;-0.16;100.00;98316.34;4469164;32;20089;-73
2023/12/06 03:19:14;;;;;;;27.83;11.40;;;;;;;-0.26;100.00;98327.13;4469168;32;20169;-73
2023/12/06 03:21:42;;;;;;;30.62;12.05;;;;;;;-0.24;100.00;98320.16;4469205;32;20119;-74
2023/12/06 03:24:10;;;;;;;28.08;11.82;;;;;;;-0.26;100.00;98324.56;4469215;32;20097;-74
2023/12/06 03:26:37;;;;;;;27.50;12.55;;;;;;;-0.14;100.00;98320.47;4468977;32;20097;-74
2023/12/06 03:29:06;;;;;;;29.65;12.00;;;;;;;-0.16;100.00;98327.47;4469055;32;20104;-74
2023/12/06 03:31:33;;;;;;;31.15;12.55;;;;;;;-0.12;100.00;98330.69;4468169;32;20111;-74
2023/12/06 03:34:00;;;;;;;29.45;12.73;;;;;;;-0.03;100.00;98336.22;4469247;32;20196;-74
2023/12/06 03:36:28;;;;;;;25.37;10.85;;;;;;;-0.09;100.00;98338.25;4469099;32;20486;-74
2023/12/06 03:38:56;;;;;;;26.65;12.23;;;;;;;-0.10;100.00;98339.19;4469209;32;20171;-74
2023/12/06 03:41:24;;;;;;;30.45;12.25;;;;;;;-0.05;100.00;98332.84;4469066;32;20120;-74
2023/12/06 03:43:52;;;;;;;26.35;11.05;;;;;;;-0.06;100.00;98340.66;4469588;32;20085;-74
2023/12/06 03:46:30;;;;;;;30.12;12.18;;;;;;;0.04;100.00;98335.88;4469104;32;20111;-74
2023/12/06 03:48:58;;;;;;;27.52;12.85;;;;;;;-0.03;100.00;98337.94;4469250;32;20123;-74
2023/12/06 03:51:26;;;;;;;27.75;11.75;;;;;;;-0.01;100.00;98329.22;4469099;32;20089;-74
2023/12/06 03:53:55;;;;;;;32.65;13.18;;;;;;;-0.05;100.00;98326.88;4469408;32;20120;-74
2023/12/06 03:56:24;;;;;;;25.02;11.70;;;;;;;0.02;100.00;98328.22;4468971;32;20088;-74
2023/12/06 03:58:54;;;;;;;31.33;12.75;;;;;;;-0.06;100.00;98330.38;4468940;32;20088;-74
2023/12/06 04:01:21;;;;;;;24.75;11.65;;;;;;;0.02;100.00;98330.81;4469065;32;20119;-74
2023/12/06 04:03:49;;;;;;;23.87;10.65;;;;;;;0.02;100.00;98333.38;4469285;32;20104;-74
2023/12/06 04:06:17;;;;;;;26.00;12.30;;;;;;;-0.02;100.00;98326.72;4468805;32;20089;-74
2023/12/06 04:08:45;;;;;;;25.27;10.95;;;;;;;-0.03;100.00;98327.62;4469081;32;20455;-74
2023/12/06 04:11:13;;;;;;;26.35;11.18;;;;;;;0.01;100.00;98329.13;4468480;32;20442;-74
2023/12/06 04:13:40;;;;;;;28.35;11.05;;;;;;;-0.09;100.00;98322.81;4469130;32;20096;-74
2023/12/06 04:16:09;;;;;;;26.85;12.70;;;;;;;-0.13;100.00;98326.47;4468636;32;20488;-75
2023/12/06 04:18:43;;;;;;;;;;;;;;;-0.09;100.00;98323.66;4469202;32;20088;-74
2023/12/06 04:21:11;;;;;;;26.73;11.07;;;;;;;-0.08;100.00;98321.91;4468702;32;20353;-75
2023/12/06 04:23:39;;;;;;;23.95;10.80;;;;;;;-0.05;100.00;98322.56;4468695;32;20093;-75
2023/12/06 04:26:08;;;;;;;28.50;11.23;;;;;;;-0.08;100.00;98320.16;4468299;32;20093;-75
2023/12/06 04:28:36;;;;;;;27.80;11.55;;;;;;;-0.01;100.00;98323.25;4468673;32;20160;-75
2023/12/06 04:31:04;;;;;;;22.92;12.00;;;;;;;0.03;100.00;98317.03;4468351;32;20097;-75
2023/12/06 04:33:32;;;;;;;26.45;11.27;;;;;;;-0.15;100.00;98315.41;4468688;32;20572;-75
2023/12/06 04:35:59;;;;;;;28.95;12.65;;;;;;;-0.09;100.00;98317.66;4468350;32;20092;-75
2023/12/06 04:38:27;;;;;;;29.20;11.63;;;;;;;-0.08;100.00;98317.56;4468714;32;20088;-75
2023/12/06 04:40:58;;;;;;;24.37;10.45;;;;;;;-0.12;100.00;98315.25;4468526;32;20088;-75
2023/12/06 04:43:25;;;;;;;22.45;9.88;;;;;;;-0.10;100.00;98316.00;4469140;32;20601;-75
2023/12/06 04:45:53;;;;;;;25.58;11.23;;;;;;;-0.11;100.00;98314.34;4470567;32;20088;-76
2023/12/06 04:48:31;;;;;;;24.45;9.82;;;;;;;-0.12;100.00;98320.41;4470280;32;20130;-75
2023/12/06 04:51:00;;;;;;;24.92;10.25;;;;;;;-0.11;100.00;98316.91;4470313;32;20492;-75
2023/12/06 04:53:30;;;;;;;22.77;9.68;;;;;;;-0.13;100.00;98316.19;4470180;32;20115;-75
2023/12/06 04:55:57;;;;;;;25.30;11.27;;;;;;;-0.13;100.00;98317.00;4470215;32;20092;-75
2023/12/06 04:58:25;;;;;;;26.95;10.43;;;;;;;-0.24;100.00;98312.41;4470271;32;20092;-75
2023/12/06 05:00:53;;;;;;;25.35;11.38;;;;;;;-0.21;100.00;98317.41;4470231;32;20446;-75
2023/12/06 05:03:21;;;;;;;29.98;13.68;;;;;;;-0.24;100.00;98311.59;4470210;32;20158;-75
2023/12/06 05:05:50;;;;;;;24.02;10.32;;;;;;;-0.20;100.00;98311.34;4470117;32;20097;-75
2023/12/06 05:08:18;;;;;;;25.70;11.15;;;;;;;-0.24;100.00;98312.41;4468204;32;20092;-75
2023/12/06 05:10:47;;;;;;;25.55;10.20;;;;;;;-0.22;100.00;98309.78;4469525;32;20156;-75
2023/12/06 05:13:16;;;;;;;23.02;10.52;;;;;;;-0.17;100.00;98312.09;4469776;32;20096;-75
2023/12/06 05:15:44;;;;;;;21.17;9.90;;;;;;;-0.16;100.00;98312.00;4470060;32;20105;-75
2023/12/06 05:18:12;;;;;;;25.75;11.90;;;;;;;-0.10;100.00;98303.16;4469795;32;20156;-75
2023/12/06 05:20:40;;;;;;;28.95;12.05;;;;;;;-0.08;100.00;98311.59;4470065;32;20097;-75
2023/12/06 05:23:09;;;;;;;25.62;10.98;;;;;;;-0.06;100.00;98314.91;4469928;32;20101;-75
2023/12/06 05:25:36;;;;;;;23.83;10.35;;;;;;;0.01;100.00;98313.69;4469675;32;20097;-75
2023/12/06 05:28:05;;;;;;;23.87;9.35;;;;;;;0.01;100.00;98310.28;4468221;32;20150;-75
2023/12/06 05:30:33;;;;;;;18.00;8.48;;;;;;;0.05;100.00;98304.91;4454166;32;20111;-75
2023/12/06 05:33:00;;;;;;;23.05;9.63;;;;;;;0.10;100.00;98309.78;4454259;32;20398;-75
2023/12/06 05:35:28;;;;;;;27.48;12.02;;;;;;;0.26;100.00;98314.94;4454547;32;20093;-75
2023/12/06 05:37:56;;;;;;;33.67;12.60;;;;;;;0.20;100.00;98317.84;4454397;32;20117;-75
2023/12/06 05:40:25;;;;;;;26.62;11.57;;;;;;;0.11;100.00;98317.44;4454051;32;20097;-75
2023/12/06 05:42:53;;;;;;;27.15;11.98;;;;;;;0.17;100.00;98311.13;4454284;32;20124;-75
2023/12/06 05:45:21;;;;;;;30.55;12.15;;;;;;;0.22;100.00;98316.84;4454421;32;20651;-75
2023/12/06 05:47:48;;;;;;;23.65;10.90;;;;;;;0.28;100.00;98315.69;4454284;32;20454;-75
2023/12/06 05:50:19;;;;;;;20.27;9.68;;;;;;;0.38;100.00;98319.44;4454445;32;20132;-74
2023/12/06 05:52:47;;;;;;;22.30;9.25;;;;;;;0.44;100.00;98318.25;4454350;32;20101;-74
2023/12/06 05:55:16;;;;;;;18.70;8.80;;;;;;;0.48;100.00;98325.72;4453376;32;20192;-75
2023/12/06 05:57:47;;;;;;;22.58;9.10;;;;;;;0.48;100.00;98320.56;4454159;32;20158;-75
2023/12/06 06:00:17;;;;;;;23.00;10.27;;;;;;;0.35;100.00;98319.59;4454200;32;20093;-75
2023/12/06 06:02:45;;;;;;;21.27;9.57;;;;;;;0.38;100.00;98318.59;4453725;32;20101;-74
2023/12/06 06:05:16;;;;;;;20.73;8.80;;;;;;;0.37;100.00;98312.62;4469963;32;20100;-74
2023/12/06 06:07:45;;;;;;;21.95;10.50;;;;;;;0.35;100.00;98315.28;4475021;32;20123;-74
2023/12/06 06:10:13;;;;;;;26.00;10.15;;;;;;;0.34;100.00;98316.19;4478584;31;20160;-74
2023/12/06 06:12:43;;;;;;;22.20;10.65;;;;;;;0.32;100.00;98314.63;4476111;32;20164;-74
2023/12/06 06:15:11;;;;;;;24.12;10.98;;;;;;;0.37;100.00;98322.91;4477959;32;20126;-74
2023/12/06 06:17:38;;;;;;;22.30;9.65;;;;;;;0.55;100.00;98330.56;4478782;31;20570;-74
2023/12/06 06:20:07;;;;;;;23.23;11.25;;;;;;;0.72;100.00;98330.44;4481487;31;20080;-74
2023/12/06 06:22:35;;;;;;;26.20;11.38;;;;;;;0.67;100.00;98324.72;4485316;31;20519;-74
2023/12/06 06:25:04;;;;;;;23.05;10.27;;;;;;;0.69;100.00;98322.88;4483803;31;20096;-75
2023/12/06 06:27:32;;;;;;;24.85;11.60;;;;;;;0.82;100.00;98334.16;4480941;31;20454;-74
2023/12/06 06:30:00;;;;;;;26.12;11.82;;;;;;;0.80;100.00;98338.59;4476497;32;20101;-74
2023/12/06 06:32:29;;;;;;;26.33;11.85;;;;;;;0.76;100.00;98341.41;4471301;32;20527;-75
2023/12/06 06:34:57;;;;;;;26.30;12.02;;;;;;;0.68;100.00;98337.53;4476954;32;20095;-75
2023/12/06 06:37:27;;;;;;;28.62;11.80;;;;;;;0.73;100.00;98339.00;4474072;32;20126;-75
2023/12/06 06:39:55;;;;;;;26.40;10.85;;;;;;;0.75;100.00;98339.75;4477767;31;20119;-75
2023/12/06 06:42:22;;;;;;;21.85;10.70;;;;;;;0.78;100.00;98339.59;4476372;31;20481;-74
2023/12/06 06:44:51;;;;;;;23.20;9.98;;;;;;;0.73;100.00;98339.00;4474289;32;20107;-74
2023/12/06 06:47:27;;;;;;;23.23;12.13;;;;;;;0.75;100.00;98344.91;4477324;32;20084;-76
2023/12/06 06:49:55;;;;;;;29.50;11.30;;;;;;;0.84;100.00;98350.38;4479519;32;20100;-75
2023/12/06 06:52:24;;;;;;;25.75;11.65;;;;;;;0.91;100.00;98347.44;4469135;32;20104;-76
2023/12/06 06:54:53;;;;;;;25.10;11.38;;;;;;;0.94;100.00;98358.44;4463415;32;20619;-76
2023/12/06 06:57:24;;;;;;;24.92;10.57;;;;;;;0.91;100.00;98363.78;4469120;32;20136;-75
2023/12/06 06:59:52;;;;;;;22.00;9.90;;;;;;;0.80;100.00;98356.63;4473159;32;20164;-74
2023/12/06 07:02:19;;;;;;;18.92;9.13;;;;;;;0.86;100.00;98355.44;4482613;31;20164;-75
2023/12/06 07:04:50;;;;;;;20.62;9.82;;;;;;;0.91;100.00;98356.03;4480313;31;20127;-74
2023/12/06 07:07:19;;;;;;;25.73;10.18;;;;;;;0.92;100.00;98352.50;4476571;31;20100;-75
2023/12/06 07:09:48;;;;;;;17.85;8.88;;;;;;;0.95;100.00;98357.50;4470601;32;20092;-75
2023/12/06 07:12:15;;;;;;;20.62;9.27;;;;;;;0.88;100.00;98357.03;4470950;32;20097;-75
2023/12/06 07:14:43;;;;;;;21.65;9.05;;;;;;;0.75;100.00;98348.31;4482789;31;20092;-75
2023/12/06 07:17:11;;;;;;;22.92;9.50;;;;;;;0.85;100.00;98354.63;4460172;32;20418;-75
2023/12/06 07:19:42;;;;;;;22.58;9.70;;;;;;;0.91;100.00;98356.03;4474323;31;20164;-75
2023/12/06 07:22:12;;;;;;;18.67;8.57;;;;;;;0.88;100.00;98354.44;4471354;31;20093;-75
2023/12/06 07:24:39;;;;;;;16.95;8.55;;;;;;;0.93;100.00;98363.69;4473354;32;20100;-75
2023/12/06 07:27:07;;;;;;;21.77;9.30;;;;;;;0.75;100.00;98363.78;4470911;32;20130;-74
2023/12/06 07:29:38;;;;;;;22.17;8.85;;;;;;;0.83;100.00;98366.78;4462023;32;20161;-74
2023/12/06 07:32:06;;;;;;;18.85;9.10;;;;;;;0.83;100.00;98368.50;4468981;32;20113;-76
2023/12/06 07:34:33;;;;;;;23.15;8.68;;;;;;;0.80;100.00;98373.84;4466500;32;20093;-77
2023/12/06 07:37:18;;;;;;;18.90;8.50;;;;;;;0.90;100.00;98361.28;4480566;31;20553;-75
2023/12/06 07:39:45;;;;;;;17.67;8.32;;;;;;;0.94;100.00;98357.59;4463947;31;20900;-75
2023/12/06 07:42:13;;;;;;;20.62;9.77;;;;;;;0.99;100.00;98361.56;4479535;32;20180;-75
2023/12/06 07:44:41;;;;;;;18.80;8.75;;;;;;;1.08;100.00;98362.81;4469938;32;20104;-74
2023/12/06 07:47:10;;;;;;;20.27;9.07;;;;;;;0.99;100.00;98355.59;4469131;32;20140;-74
2023/12/06 07:49:37;;;;;;;15.90;7.78;;;;;;;0.90;100.00;98356.94;4468656;32;20092;-74
2023/12/06 07:52:04;;;;;;;20.17;8.68;;;;;;;0.95;100.00;98360.06;4469547;32;20085;-74
2023/12/06 07:54:31;;;;;;;19.23;7.53;;;;;;;0.96;100.00;98361.75;4482426;32;20654;-74
2023/12/06 07:57:00;;;;;;;17.85;8.27;;;;;;;0.98;100.00;98367.63;4471880;31;20088;-75
2023/12/06 07:59:28;;;;;;;18.75;8.35;;;;;;;1.12;100.00;98364.31;4471470;32;20112;-75
2023/12/06 08:01:57;;;;;;;18.55;7.43;;;;;;;1.10;100.00;98363.53;4480635;32;20115;-75
2023/12/06 08:04:25;;;;;;;19.33;8.20;;;;;;;1.10;100.00;98368.69;4482807;31;20118;-77
2023/12/06 08:06:53;;;;;;;21.20;7.07;;;;;;;1.15;100.00;98361.53;4482682;31;20095;-78
2023/12/06 08:09:20;;;;;;;18.10;7.47;;;;;;;1.26;100.00;98358.34;4477547;31;20187;-77
2023/12/06 08:11:49;;;;;;;15.93;7.30;;;;;;;1.26;100.00;98363.50;4469523;32;20532;-78
2023/12/06 08:14:16;;;;;;;16.60;7.72;;;;;;;1.31;100.00;98365.81;4477148;32;20085;-78
2023/12/06 08:16:43;;;;;;;18.87;8.10;;;;;;;1.43;100.00;98362.50;4470607;32;20163;-79
2023/12/06 08:19:10;;;;;;;11.68;6.53;;;;;;;1.42;100.00;98360.84;4468421;32;20154;-78
2023/12/06 08:21:39;;;;;;;16.58;7.32;;;;;;;1.46;100.00;98357.19;4466124;32;20161;-75
2023/12/06 08:24:06;;;;;;;16.73;7.32;;;;;;;1.46;100.00;98354.59;4466452;32;20097;-74
2023/12/06 08:26:36;;;;;;;15.00;6.85;;;;;;;1.60;100.00;98361.53;4466053;32;80833;-77
2023/12/06 08:29:06;;;;;;;14.52;6.43;;;;;;;1.48;100.00;98357.91;4468650;32;20154;-78
2023/12/06 08:31:36;;;;;;;13.88;6.90;;;;;;;1.53;100.00;98358.47;4465101;32;20152;-77
2023/12/06 08:34:03;;;;;;;14.50;6.87;;;;;;;1.68;100.00;98363.66;4465888;32;20104;-80
2023/12/06 08:36:30;;;;;;;11.65;6.07;;;;;;;1.77;100.00;98365.69;4464865;32;20503;-78
2023/12/06 08:38:58;;;;;;;13.57;5.97;;;;;;;1.88;100.00;98360.72;4467917;32;20143;-77
2023/12/06 08:41:26;;;;;;;13.68;7.15;;;;;;;1.86;100.00;98367.72;4473334;32;20176;-76
2023/12/06 08:43:54;;;;;;;14.18;7.80;;;;;;;2.03;100.00;98368.44;4468907;31;20837;-76
2023/12/06 08:46:29;;;;;;;14.80;7.20;;;;;;;2.13;100.00;98365.22;4470241;32;20092;-76
2023/12/06 08:48:58;;;;;;;17.33;7.15;;;;;;;2.24;100.00;98361.97;4468794;32;20092;-77
2023/12/06 08:51:27;;;;;;;12.20;6.65;;;;;;;2.23;100.00;98362.91;4467239;32;20760;-75
2023/12/06 08:53:56;;;;;;;17.12;8.10;;;;;;;2.46;100.00;98358.06;4469544;32;20130;-75
2023/12/06 08:56:26;;;;;;;32.53;11.63;;;;;;;2.18;100.00;98369.25;4465516;32;20092;-76
2023/12/06 08:58:53;;;;;;;31.10;11.90;;;;;;;2.35;100.00;98361.31;4469894;32;20558;-75
2023/12/06 09:01:20;;;;;;;39.30;13.13;;;;;;;2.29;100.00;98362.50;4468046;32;20158;-74
2023/12/06 09:03:48;;;;;;;18.15;8.15;;;;;;;2.28;100.00;98366.00;4468060;32;20169;-75
2023/12/06 09:06:15;;;;;;;17.95;7.62;;;;;;;2.37;100.00;98366.38;4465829;32;20229;-73
2023/12/06 09:08:43;;;;;;;12.40;6.25;;;;;;;2.40;100.00;98363.59;4464982;32;20196;-75
2023/12/06 09:11:11;;;;;;;13.50;7.12;;;;;;;2.40;100.00;98361.84;4465481;32;20910;-75
2023/12/06 09:13:38;;;;;;;11.52;6.70;;;;;;;2.59;100.00;98369.28;4468643;32;20598;-75
2023/12/06 09:16:06;;;;;;;19.50;9.70;;;;;;;2.73;100.00;98368.41;4464037;32;20088;-74
2023/12/06 09:18:34;;;;;;;18.55;8.90;;;;;;;2.83;100.00;98361.72;4469679;31;20089;-74
2023/12/06 09:21:05;;;;;;;21.37;10.20;;;;;;;2.78;100.00;98363.75;4468508;32;20117;-75
2023/12/06 09:23:33;;;;;;;16.25;7.28;;;;;;;2.89;100.00;98363.06;4467434;32;20998;-76
2023/12/06 09:26:02;;;;;;;19.12;7.60;;;;;;;2.91;100.00;98363.81;4463860;32;20100;-76
2023/12/06 09:28:30;;;;;;;14.65;7.75;;;;;;;2.55;100.00;98354.87;4466659;32;20110;-76
2023/12/06 09:31:01;;;;;;;15.95;7.75;;;;;;;2.64;100.00;98354.31;4470751;31;20146;-78
2023/12/06 09:33:31;;;;;;;16.33;7.87;;;;;;;2.68;100.00;98347.19;4469730;31;20101;-76
2023/12/06 09:36:00;;;;;;;16.20;8.13;;;;;;;2.72;100.00;98355.56;4469639;32;20088;-76
2023/12/06 09:38:27;;;;;;;19.58;9.27;;;;;;;2.70;100.00;98360.03;4470302;32;20490;-76
2023/12/06 09:40:55;;;;;;;19.23;8.90;;;;;;;2.84;100.00;98347.03;4477973;32;20101;-75
2023/12/06 09:43:23;;;;;;;19.60;9.50;;;;;;;2.73;100.00;98354.66;4470346;32;20101;-74
2023/12/06 09:45:52;;;;;;;23.02;10.25;;;;;;;2.58;100.00;98351.28;4473255;32;20134;-76
2023/12/06 09:48:21;;;;;;;22.33;9.32;;;;;;;2.49;100.00;98350.09;4475852;31;20100;-75
2023/12/06 09:50:49;;;;;;;18.73;9.27;;;;;;;2.59;100.00;98350.34;4470079;32;20131;-75
2023/12/06 09:53:21;;;;;;;17.60;9.02;;;;;;;2.64;100.00;98354.31;4472190;32;20092;-76
2023/12/06 09:55:49;;;;;;;15.30;7.47;;;;;;;2.69;100.00;98355.78;4473392;32;20120;-75
2023/12/06 09:58:19;;;;;;;14.82;7.28;;;;;;;2.78;100.00;98345.66;4467127;32;20771;-77
2023/12/06 10:00:47;;;;;;;17.12;8.85;;;;;;;2.99;100.00;98355.56;4477366;31;20791;-77
2023/12/06 10:03:16;;;;;;;18.25;8.93;;;;;;;3.07;100.00;98360.22;4475996;31;20140;-76
2023/12/06 10:05:59;;;;;;;32.33;13.80;;;;;;;3.14;100.00;98357.16;4475953;32;20108;-75
2023/12/06 10:08:26;;;;;;;53.65;19.55;;;;;;;3.15;100.00;98355.37;4471299;32;20115;-78
2023/12/06 10:11:07;;;;;;;46.00;16.55;;;;;;;3.23;100.00;98362.66;4474431;31;20598;-76
2023/12/06 10:13:38;;;;;;;37.30;15.95;;;;;;;3.28;100.00;98360.59;4473525;32;20093;-78
2023/12/06 10:16:19;;;;;;;39.72;17.48;;;;;;;3.18;100.00;98365.56;4469176;32;20527;-76
2023/12/06 10:18:49;;;;;;;39.50;19.60;;;;;;;3.01;100.00;98364.03;4472794;32;20123;-77
2023/12/06 10:21:17;;;;;;;49.50;20.30;;;;;;;2.96;100.00;98359.16;4472157;31;20499;-76
2023/12/06 10:23:59;;;;;;;29.35;14.98;;;;;;;3.19;100.00;98359.44;4469726;32;20201;-76
2023/12/06 10:26:28;;;;;;;24.98;12.55;;;;;;;3.28;100.00;98358.00;4467036;32;20101;-77
2023/12/06 10:28:58;;;;;;;40.17;19.15;;;;;;;3.23;100.00;98363.47;4468154;32;20137;-77
2023/12/06 10:31:42;;;;;;;56.72;22.95;;;;;;;3.41;100.00;98363.19;4473815;32;20123;-76
2023/12/06 10:34:15;;;;;;;77.75;23.67;;;;;;;3.25;100.00;98369.37;4471337;32;20100;-75
2023/12/06 10:36:43;;;;;;;102.60;24.80;;;;;;;3.22;100.00;98364.41;4465162;32;20767;-77
2023/12/06 10:39:12;;;;;;;141.55;25.85;;;;;;;3.37;100.00;98365.97;4465188;32;20113;-74
2023/12/06 10:41:42;;;;;;;188.87;26.65;;;;;;;3.35;100.00;98364.44;4452400;32;20376;-75
2023/12/06 10:44:10;;;;;;;142.93;25.85;;;;;;;3.33;100.00;98368.88;4467906;32;20180;-74
2023/12/06 10:46:43;;;;;;;117.85;23.20;;;;;;;3.12;100.00;98356.44;4469549;32;20105;-76
2023/12/06 10:49:16;;;;;;;131.18;25.35;;;;;;;3.23;100.00;98349.72;4466248;32;20150;-75
2023/12/06 10:51:45;;;;;;;91.03;25.95;;;;;;;3.37;100.00;98354.81;4474914;32;20434;-74
2023/12/06 10:54:13;;;;;;;118.00;25.90;;;;;;;3.34;100.00;98361.00;4467046;32;20162;-74
2023/12/06 10:56:42;;;;;;;63.05;23.33;;;;;;;3.24;100.00;98356.53;4467045;32;20153;-73
2023/12/06 10:59:10;;;;;;;61.33;24.83;;;;;;;3.33;100.00;98358.50;4458309;32;20088;-74
2023/12/06 11:01:40;;;;;;;52.05;24.27;;;;;;;3.29;100.00;98351.91;4475624;32;20133;-74
2023/12/06 11:04:10;;;;;;;54.58;23.60;;;;;;;3.18;100.00;98350.84;4472292;32;20101;-73
2023/12/06 11:06:47;;;;;;;57.80;23.85;;;;;;;3.13;100.00;98352.88;4467317;32;20165;-74
2023/12/06 11:09:27;;;;;;;48.55;21.40;;;;;;;3.18;100.00;98350.03;4467919;32;20517;-73
2023/12/06 11:12:23;;;;;;;46.10;17.48;;;;;;;3.34;100.00;98352.41;4477540;32;20135;-73
2023/12/06 11:15:11;;;;;;;30.08;12.25;;;;;;;3.10;100.00;98350.50;4466741;32;20156;-74
2023/12/06 11:18:04;;;;;;;19.27;10.15;;;;;;;2.99;100.00;98342.62;4467714;32;20097;-73
2023/12/06 11:20:31;;;;;;;20.48;8.60;;;;;;;2.69;100.00;98340.25;4463800;32;20119;-73
2023/12/06 11:23:00;;;;;;;17.45;7.82;;;;;;;2.64;100.00;98346.53;4469503;32;20480;-74
2023/12/06 11:25:48;;;;;;;23.70;8.80;;;;;;;2.53;100.00;98338.66;4469612;32;20100;-73